Terminal Aerodrome Forecast
Issued by NWS Tampa Bay Area, FL

Home | Current Version | Previous Version | Text Only | Print | Product List | Glossary On
Versions: 1 2 3 4 5 6 7 8 9 10 11 12 13 14
029
FTUS42 KTBW 230527
TAFSRQ
TAF
KSRQ 230527Z 2306/2406 VRB03KT P6SM VCSH SCT016
      TEMPO 2306/2309 4SM BR BKN016
     FM230900 VRB03KT P6SM BKN016
      TEMPO 2309/2313 4SM BR SCT016
     FM231400 34010KT P6SM SCT020 BKN120
     FM231700 02009KT P6SM SCT030 SCT120=

USA.gov is the U.S. government's official web portal to all federal, state and local government web resources and services.